New Washington, Indiana
Current Conditions -  °F | °C
As of 12:33 AM on Monday 22 Dec 2014 (Local Time) from KIMS Reporting Station
Broken Clouds Broken Clouds  
Wind Chill: 27°   Ceiling: 4200
Heat Index: 32°   Visibility: 10mi
Dew Point: 27°   Wind: 5mph
Humidity: 80%   Direction: 100°E
Pressure: 30.08"   Gusts: NA
Location:  38.56°N, 85.54°W
Report Text: KIMS 220533Z AUTO 10004KT 10SM BKN042 00/M03 A3008 RMK AO1
Loading
Personal Weather Stations






























Interactive Weather Map New forecast layout! Learn more

10-Day Weather Forecast

Advertisements
Track Severe Weather on mobile